sensor_id;sensor_type;location;lat;lon;timestamp;pressure;altitude;pressure_sealevel;temperature;humidity
1652;BME280;823;49.028;8.454;2023-02-28T00:03:06;101307.69;;;2.95;45.00
1652;BME280;823;49.028;8.454;2023-02-28T00:08:07;101305.59;;;2.66;45.44
1652;BME280;823;49.028;8.454;2023-02-28T00:13:07;101303.88;;;2.65;45.82
1652;BME280;823;49.028;8.454;2023-02-28T00:18:08;101309.75;;;2.60;45.63
1652;BME280;823;49.028;8.454;2023-02-28T00:23:08;101302.91;;;2.57;45.49
1652;BME280;823;49.028;8.454;2023-02-28T00:28:08;101299.72;;;2.73;45.25
1652;BME280;823;49.028;8.454;2023-02-28T00:33:09;101300.38;;;2.60;45.60
1652;BME280;823;49.028;8.454;2023-02-28T00:38:09;101303.72;;;2.56;45.33
1652;BME280;823;49.028;8.454;2023-02-28T00:43:09;101311.22;;;2.44;45.92
1652;BME280;823;49.028;8.454;2023-02-28T00:48:10;101305.41;;;2.52;45.84
1652;BME280;823;49.028;8.454;2023-02-28T00:53:10;101301.13;;;2.51;46.02
1652;BME280;823;49.028;8.454;2023-02-28T00:58:10;101314.91;;;2.63;45.34
1652;BME280;823;49.028;8.454;2023-02-28T01:03:11;101307.63;;;2.32;46.68
1652;BME280;823;49.028;8.454;2023-02-28T01:08:11;101305.41;;;2.52;45.87
1652;BME280;823;49.028;8.454;2023-02-28T01:13:12;101307.81;;;2.45;45.89
1652;BME280;823;49.028;8.454;2023-02-28T01:18:12;101302.69;;;2.42;46.26
1652;BME280;823;49.028;8.454;2023-02-28T01:23:13;101309.47;;;2.40;46.52
1652;BME280;823;49.028;8.454;2023-02-28T01:28:13;101305.06;;;2.31;46.45
1652;BME280;823;49.028;8.454;2023-02-28T01:33:13;101295.66;;;2.28;46.29
1652;BME280;823;49.028;8.454;2023-02-28T01:38:14;101310.13;;;2.28;46.95
1652;BME280;823;49.028;8.454;2023-02-28T01:53:54;101302.84;;;1.99;47.67
1652;BME280;823;49.028;8.454;2023-02-28T01:58:56;101293.56;;;2.02;47.76
1652;BME280;823;49.028;8.454;2023-02-28T02:03:59;101293.59;;;2.06;47.79
1652;BME280;823;49.028;8.454;2023-02-28T02:09:00;101290.06;;;1.97;48.07
1652;BME280;823;49.028;8.454;2023-02-28T02:14:35;101287.25;;;1.82;48.51
1652;BME280;823;49.028;8.454;2023-02-28T02:25:11;101282.34;;;1.93;48.35
1652;BME280;823;49.028;8.454;2023-02-28T02:30:48;101278.03;;;1.90;48.60
1652;BME280;823;49.028;8.454;2023-02-28T02:46:28;101275.00;;;1.61;49.88
1652;BME280;823;49.028;8.454;2023-02-28T02:51:31;101283.59;;;1.67;49.42
1652;BME280;823;49.028;8.454;2023-02-28T02:56:33;101285.41;;;1.73;49.43
1652;BME280;823;49.028;8.454;2023-02-28T03:01:36;101281.13;;;1.72;49.38
1652;BME280;823;49.028;8.454;2023-02-28T03:06:37;101278.59;;;1.74;49.51
1652;BME280;823;49.028;8.454;2023-02-28T03:11:39;101283.69;;;1.72;49.60
1652;BME280;823;49.028;8.454;2023-02-28T03:16:59;101279.56;;;1.79;49.20
1652;BME280;823;49.028;8.454;2023-02-28T03:22:31;101279.00;;;1.97;49.10
1652;BME280;823;49.028;8.454;2023-02-28T03:27:44;101282.63;;;2.11;48.99
1652;BME280;823;49.028;8.454;2023-02-28T03:38:16;101271.63;;;2.14;49.00
1652;BME280;823;49.028;8.454;2023-02-28T03:43:24;101272.53;;;2.17;48.70
1652;BME280;823;49.028;8.454;2023-02-28T03:48:40;101275.22;;;2.27;48.88
1652;BME280;823;49.028;8.454;2023-02-28T03:53:46;101273.56;;;2.29;48.60
1652;BME280;823;49.028;8.454;2023-02-28T04:03:59;101277.31;;;2.52;48.04
1652;BME280;823;49.028;8.454;2023-02-28T04:09:00;101271.38;;;2.55;48.19
1652;BME280;823;49.028;8.454;2023-02-28T04:14:01;101276.53;;;2.58;48.09
1652;BME280;823;49.028;8.454;2023-02-28T04:19:03;101274.06;;;2.64;47.68
1652;BME280;823;49.028;8.454;2023-02-28T04:24:05;101274.94;;;2.65;47.68
1652;BME280;823;49.028;8.454;2023-02-28T04:29:06;101278.34;;;2.67;47.80
1652;BME280;823;49.028;8.454;2023-02-28T04:34:07;101269.03;;;2.69;47.33
1652;BME280;823;49.028;8.454;2023-02-28T04:39:08;101274.97;;;2.68;47.20
1652;BME280;823;49.028;8.454;2023-02-28T04:44:09;101268.13;;;2.67;47.47
1652;BME280;823;49.028;8.454;2023-02-28T04:49:11;101269.84;;;2.68;47.23
1652;BME280;823;49.028;8.454;2023-02-28T04:54:11;101263.75;;;2.57;47.75
1652;BME280;823;49.028;8.454;2023-02-28T04:59:13;101275.91;;;2.75;46.78
1652;BME280;823;49.028;8.454;2023-02-28T05:04:14;101279.94;;;2.59;47.37
1652;BME280;823;49.028;8.454;2023-02-28T05:09:14;101277.59;;;2.74;47.07
1652;BME280;823;49.028;8.454;2023-02-28T05:14:14;101281.84;;;2.73;46.77
1652;BME280;823;49.028;8.454;2023-02-28T05:19:15;101287.53;;;2.52;47.21
1652;BME280;823;49.028;8.454;2023-02-28T05:24:15;101284.22;;;2.61;47.10
1652;BME280;823;49.028;8.454;2023-02-28T05:29:21;101286.84;;;2.66;47.16
1652;BME280;823;49.028;8.454;2023-02-28T05:34:22;101295.22;;;2.55;47.44
1652;BME280;823;49.028;8.454;2023-02-28T05:39:22;101290.03;;;2.49;47.31
1652;BME280;823;49.028;8.454;2023-02-28T05:44:23;101293.59;;;2.61;47.32
1652;BME280;823;49.028;8.454;2023-02-28T05:49:23;101293.69;;;2.68;47.13
1652;BME280;823;49.028;8.454;2023-02-28T05:54:23;101291.13;;;2.67;47.25
1652;BME280;823;49.028;8.454;2023-02-28T05:59:24;101293.41;;;2.48;47.99
1652;BME280;823;49.028;8.454;2023-02-28T06:04:24;101289.19;;;2.52;47.78
1652;BME280;823;49.028;8.454;2023-02-28T06:09:24;101289.97;;;2.46;47.91
1652;BME280;823;49.028;8.454;2023-02-28T06:14:25;101292.06;;;2.72;47.95
1652;BME280;823;49.028;8.454;2023-02-28T06:19:26;101298.19;;;2.85;47.53
1652;BME280;823;49.028;8.454;2023-02-28T06:24:26;101303.88;;;2.65;47.52
1652;BME280;823;49.028;8.454;2023-02-28T06:29:32;101308.97;;;2.64;47.66
1652;BME280;823;49.028;8.454;2023-02-28T06:34:33;101307.59;;;2.87;47.41
1652;BME280;823;49.028;8.454;2023-02-28T06:39:34;101313.59;;;2.91;46.90
1652;BME280;823;49.028;8.454;2023-02-28T06:44:35;101309.31;;;2.88;46.82
1652;BME280;823;49.028;8.454;2023-02-28T06:49:36;101317.91;;;2.95;46.56
1652;BME280;823;49.028;8.454;2023-02-28T06:54:36;101334.41;;;3.17;46.79
1652;BME280;823;49.028;8.454;2023-02-28T06:59:37;101336.88;;;3.14;46.17
1652;BME280;823;49.028;8.454;2023-02-28T07:04:37;101336.94;;;3.17;46.10
1652;BME280;823;49.028;8.454;2023-02-28T07:09:43;101343.88;;;3.26;46.00
1652;BME280;823;49.028;8.454;2023-02-28T07:14:43;101350.78;;;3.35;45.98
1652;BME280;823;49.028;8.454;2023-02-28T07:19:44;101352.53;;;3.39;45.75
1652;BME280;823;49.028;8.454;2023-02-28T07:24:44;101359.31;;;3.34;45.94
1652;BME280;823;49.028;8.454;2023-02-28T07:29:44;101352.50;;;3.34;45.62
1652;BME280;823;49.028;8.454;2023-02-28T07:34:45;101352.72;;;3.54;45.71
1652;BME280;823;49.028;8.454;2023-02-28T07:39:45;101351.06;;;3.60;45.58
1652;BME280;823;49.028;8.454;2023-02-28T07:44:46;101361.22;;;3.50;45.45
1652;BME280;823;49.028;8.454;2023-02-28T07:49:46;101361.75;;;3.26;45.70
1652;BME280;823;49.028;8.454;2023-02-28T07:54:46;101367.97;;;3.44;45.22
1652;BME280;823;49.028;8.454;2023-02-28T07:59:47;101368.84;;;3.47;45.66
1652;BME280;823;49.028;8.454;2023-02-28T08:04:47;101368.09;;;3.56;45.46
1652;BME280;823;49.028;8.454;2023-02-28T08:09:48;101362.22;;;3.63;44.86
1652;BME280;823;49.028;8.454;2023-02-28T08:14:48;101363.97;;;3.69;44.92
1652;BME280;823;49.028;8.454;2023-02-28T08:19:49;101360.78;;;3.90;44.67
1652;BME280;823;49.028;8.454;2023-02-28T08:24:49;101372.72;;;3.86;44.46
1652;BME280;823;49.028;8.454;2023-02-28T08:29:49;101373.81;;;4.15;44.72
1652;BME280;823;49.028;8.454;2023-02-28T08:34:49;101375.34;;;3.97;44.32
1652;BME280;823;49.028;8.454;2023-02-28T08:39:50;101370.38;;;4.11;43.95
1652;BME280;823;49.028;8.454;2023-02-28T08:44:50;101380.69;;;4.17;43.64
1652;BME280;823;49.028;8.454;2023-02-28T08:49:51;101381.63;;;4.30;43.99
1652;BME280;823;49.028;8.454;2023-02-28T08:54:51;101383.41;;;4.37;43.69
1652;BME280;823;49.028;8.454;2023-02-28T08:59:52;101375.88;;;4.53;43.23
1652;BME280;823;49.028;8.454;2023-02-28T09:04:52;101374.22;;;4.61;42.78
1652;BME280;823;49.028;8.454;2023-02-28T09:09:52;101373.34;;;4.60;42.95
1652;BME280;823;49.028;8.454;2023-02-28T09:14:55;101370.84;;;4.67;43.04
1652;BME280;823;49.028;8.454;2023-02-28T09:19:56;101377.81;;;4.89;42.39
1652;BME280;823;49.028;8.454;2023-02-28T09:24:57;101373.69;;;5.13;42.05
1652;BME280;823;49.028;8.454;2023-02-28T09:29:57;101376.25;;;5.16;41.43
1652;BME280;823;49.028;8.454;2023-02-28T09:34:57;101381.44;;;5.28;41.58
1652;BME280;823;49.028;8.454;2023-02-28T09:39:57;101372.91;;;5.23;41.84
1652;BME280;823;49.028;8.454;2023-02-28T09:45:00;101370.34;;;5.28;41.03
1652;BME280;823;49.028;8.454;2023-02-28T09:50:21;101368.63;;;5.25;41.25
1652;BME280;823;49.028;8.454;2023-02-28T09:55:30;101369.50;;;5.31;41.77
1652;BME280;823;49.028;8.454;2023-02-28T10:00:36;101361.94;;;5.68;40.92
1652;BME280;823;49.028;8.454;2023-02-28T10:05:44;101359.34;;;5.63;40.11
1652;BME280;823;49.028;8.454;2023-02-28T10:10:55;101373.81;;;5.36;40.79
1652;BME280;823;49.028;8.454;2023-02-28T10:16:05;101374.69;;;5.46;40.66
1652;BME280;823;49.028;8.454;2023-02-28T10:21:17;101382.41;;;5.52;40.88
1652;BME280;823;49.028;8.454;2023-02-28T10:26:19;101375.59;;;5.53;39.96
1652;BME280;823;49.028;8.454;2023-02-28T10:31:20;101378.25;;;5.91;39.56
1652;BME280;823;49.028;8.454;2023-02-28T10:36:21;101385.16;;;6.00;40.06
1652;BME280;823;49.028;8.454;2023-02-28T10:41:30;101382.53;;;5.91;38.98
1652;BME280;823;49.028;8.454;2023-02-28T10:46:34;101379.19;;;6.15;39.36
1652;BME280;823;49.028;8.454;2023-02-28T10:51:37;101385.91;;;5.73;40.13
1652;BME280;823;49.028;8.454;2023-02-28T10:56:38;101381.69;;;5.90;39.38
1652;BME280;823;49.028;8.454;2023-02-28T11:01:46;101379.16;;;6.01;39.40
1652;BME280;823;49.028;8.454;2023-02-28T11:07:04;101380.91;;;6.33;38.89
1652;BME280;823;49.028;8.454;2023-02-28T11:12:20;101377.41;;;5.95;39.63
1652;BME280;823;49.028;8.454;2023-02-28T11:17:24;101372.31;;;6.16;39.40
1652;BME280;823;49.028;8.454;2023-02-28T11:22:28;101371.50;;;6.27;38.49
1652;BME280;823;49.028;8.454;2023-02-28T11:32:30;101362.06;;;6.57;38.34
1652;BME280;823;49.028;8.454;2023-02-28T11:37:31;101352.59;;;6.69;37.62
1652;BME280;823;49.028;8.454;2023-02-28T11:43:01;101354.28;;;6.93;37.86
1652;BME280;823;49.028;8.454;2023-02-28T11:48:21;101348.25;;;7.11;37.15
1652;BME280;823;49.028;8.454;2023-02-28T12:20:22;101332.66;;;8.67;34.60
1652;BME280;823;49.028;8.454;2023-02-28T12:35:59;101317.25;;;8.61;33.50
1652;BME280;823;49.028;8.454;2023-02-28T12:41:10;101320.72;;;8.54;33.69
1652;BME280;823;49.028;8.454;2023-02-28T12:51:19;101312.34;;;8.27;33.93
1652;BME280;823;49.028;8.454;2023-02-28T12:56:32;101302.84;;;8.35;33.52
1652;BME280;823;49.028;8.454;2023-02-28T13:12:50;101301.91;;;8.41;33.96
1652;BME280;823;49.028;8.454;2023-02-28T13:17:58;101298.66;;;8.25;34.53
1652;BME280;823;49.028;8.454;2023-02-28T13:22:59;101296.84;;;8.32;33.48
1652;BME280;823;49.028;8.454;2023-02-28T13:28:03;101295.19;;;8.29;34.52
1652;BME280;823;49.028;8.454;2023-02-28T13:38:33;101290.84;;;8.31;34.05
1652;BME280;823;49.028;8.454;2023-02-28T14:00:13;101290.56;;;8.62;34.03
1652;BME280;823;49.028;8.454;2023-02-28T14:05:19;101294.97;;;8.51;34.17
1652;BME280;823;49.028;8.454;2023-02-28T14:10:37;101295.59;;;8.75;34.12
1652;BME280;823;49.028;8.454;2023-02-28T14:15:43;101300.97;;;8.56;34.31
1652;BME280;823;49.028;8.454;2023-02-28T14:20:46;101290.69;;;8.51;34.04
1652;BME280;823;49.028;8.454;2023-02-28T14:26:03;101291.28;;;8.77;34.00
1652;BME280;823;49.028;8.454;2023-02-28T14:36:20;101291.38;;;8.69;34.33
1652;BME280;823;49.028;8.454;2023-02-28T14:41:33;101288.75;;;8.71;34.57
1652;BME280;823;49.028;8.454;2023-02-28T14:46:39;101292.31;;;8.60;33.89
1652;BME280;823;49.028;8.454;2023-02-28T14:51:40;101293.13;;;8.64;34.11
1652;BME280;823;49.028;8.454;2023-02-28T14:56:41;101294.13;;;8.50;34.66
1652;BME280;823;49.028;8.454;2023-02-28T15:01:41;101288.91;;;8.57;34.79
1652;BME280;823;49.028;8.454;2023-02-28T15:06:41;101300.19;;;8.48;34.43
1652;BME280;823;49.028;8.454;2023-02-28T15:11:46;101289.81;;;8.51;33.87
1652;BME280;823;49.028;8.454;2023-02-28T15:17:03;101289.63;;;8.71;33.93
1652;BME280;823;49.028;8.454;2023-02-28T15:22:12;101283.72;;;8.58;34.10
1652;BME280;823;49.028;8.454;2023-02-28T15:27:24;101278.56;;;8.58;34.20
1652;BME280;823;49.028;8.454;2023-02-28T15:32:27;101283.00;;;8.47;34.14
1652;BME280;823;49.028;8.454;2023-02-28T15:43:36;101281.44;;;8.27;34.68
1652;BME280;823;49.028;8.454;2023-02-28T15:48:43;101285.72;;;8.28;34.50
1652;BME280;823;49.028;8.454;2023-02-28T15:53:51;101284.84;;;8.28;34.44
1652;BME280;823;49.028;8.454;2023-02-28T15:59:02;101280.66;;;8.17;34.58
1652;BME280;823;49.028;8.454;2023-02-28T16:04:06;101282.25;;;8.32;34.56
1652;BME280;823;49.028;8.454;2023-02-28T16:09:09;101285.75;;;8.27;35.25
1652;BME280;823;49.028;8.454;2023-02-28T16:14:15;101288.50;;;8.04;34.78
1652;BME280;823;49.028;8.454;2023-02-28T16:19:15;101290.09;;;8.15;34.92
1652;BME280;823;49.028;8.454;2023-02-28T16:24:16;101291.91;;;8.09;34.76
1652;BME280;823;49.028;8.454;2023-02-28T16:29:29;101304.84;;;8.01;35.24
1652;BME280;823;49.028;8.454;2023-02-28T16:34:30;101297.22;;;7.87;35.27
1652;BME280;823;49.028;8.454;2023-02-28T16:39:30;101302.44;;;7.76;35.76
1652;BME280;823;49.028;8.454;2023-02-28T16:44:35;101311.81;;;7.83;35.46
1652;BME280;823;49.028;8.454;2023-02-28T16:49:35;101314.50;;;7.70;35.88
1652;BME280;823;49.028;8.454;2023-02-28T16:54:36;101327.56;;;7.36;36.44
1652;BME280;823;49.028;8.454;2023-02-28T16:59:36;101331.91;;;7.16;37.18
1652;BME280;823;49.028;8.454;2023-02-28T17:04:36;101331.91;;;7.18;36.87
1652;BME280;823;49.028;8.454;2023-02-28T17:09:37;101338.81;;;7.14;37.42
1652;BME280;823;49.028;8.454;2023-02-28T17:14:37;101336.31;;;6.84;37.62
1652;BME280;823;49.028;8.454;2023-02-28T17:19:38;101338.84;;;7.01;37.40
1652;BME280;823;49.028;8.454;2023-02-28T17:24:41;101338.88;;;6.84;37.85
1652;BME280;823;49.028;8.454;2023-02-28T17:29:41;101350.91;;;6.68;38.29
1652;BME280;823;49.028;8.454;2023-02-28T17:34:42;101354.38;;;6.50;38.60
1652;BME280;823;49.028;8.454;2023-02-28T17:39:43;101360.34;;;6.50;38.80
1652;BME280;823;49.028;8.454;2023-02-28T17:44:44;101364.63;;;6.45;38.68
1652;BME280;823;49.028;8.454;2023-02-28T17:49:44;101373.19;;;6.39;38.96
1652;BME280;823;49.028;8.454;2023-02-28T17:54:44;101375.75;;;6.13;39.62
1652;BME280;823;49.028;8.454;2023-02-28T17:59:45;101377.47;;;6.31;39.26
1652;BME280;823;49.028;8.454;2023-02-28T18:04:45;101372.31;;;6.16;39.48
1652;BME280;823;49.028;8.454;2023-02-28T18:09:45;101375.75;;;6.21;39.30
1652;BME280;823;49.028;8.454;2023-02-28T18:14:46;101379.19;;;6.17;39.12
1652;BME280;823;49.028;8.454;2023-02-28T18:19:47;101365.47;;;6.08;39.64
1652;BME280;823;49.028;8.454;2023-02-28T18:24:48;101373.19;;;6.04;39.61
1652;BME280;823;49.028;8.454;2023-02-28T18:29:48;101372.25;;;5.92;40.04
1652;BME280;823;49.028;8.454;2023-02-28T18:34:50;101372.25;;;5.82;40.16
1652;BME280;823;49.028;8.454;2023-02-28T18:39:50;101376.53;;;5.92;40.19
1652;BME280;823;49.028;8.454;2023-02-28T18:44:50;101371.38;;;5.75;40.14
1652;BME280;823;49.028;8.454;2023-02-28T18:49:51;101374.78;;;5.71;40.34
1652;BME280;823;49.028;8.454;2023-02-28T18:54:51;101366.97;;;5.40;40.81
1652;BME280;823;49.028;8.454;2023-02-28T18:59:51;101378.09;;;5.48;40.96
1652;BME280;823;49.028;8.454;2023-02-28T19:04:52;101371.25;;;5.36;41.02
1652;BME280;823;49.028;8.454;2023-02-28T19:09:52;101376.31;;;5.32;41.02
1652;BME280;823;49.028;8.454;2023-02-28T19:14:52;101385.75;;;5.34;41.22
1652;BME280;823;49.028;8.454;2023-02-28T19:19:52;101384.88;;;5.27;41.44
1652;BME280;823;49.028;8.454;2023-02-28T19:24:53;101381.44;;;5.22;41.34
1652;BME280;823;49.028;8.454;2023-02-28T19:29:53;101397.59;;;5.10;41.34
1652;BME280;823;49.028;8.454;2023-02-28T19:34:54;101387.38;;;5.15;41.31
1652;BME280;823;49.028;8.454;2023-02-28T19:39:54;101386.44;;;5.04;41.53
1652;BME280;823;49.028;8.454;2023-02-28T19:44:55;101382.06;;;4.84;41.97
1652;BME280;823;49.028;8.454;2023-02-28T19:49:56;101378.72;;;4.98;41.78
1652;BME280;823;49.028;8.454;2023-02-28T19:54:57;101377.81;;;4.89;42.06
1652;BME280;823;49.028;8.454;2023-02-28T19:59:57;101383.72;;;4.76;42.38
1652;BME280;823;49.028;8.454;2023-02-28T20:04:58;101384.50;;;4.66;42.48
1652;BME280;823;49.028;8.454;2023-02-28T20:09:59;101374.25;;;4.66;42.34
1652;BME280;823;49.028;8.454;2023-02-28T20:14:59;101381.03;;;4.60;42.63
1652;BME280;823;49.028;8.454;2023-02-28T20:20:00;101380.19;;;4.62;42.82
1652;BME280;823;49.028;8.454;2023-02-28T20:25:00;101381.84;;;4.55;43.15
1652;BME280;823;49.028;8.454;2023-02-28T20:30:01;101379.22;;;4.46;43.17
1652;BME280;823;49.028;8.454;2023-02-28T20:35:01;101377.47;;;4.43;43.19
1652;BME280;823;49.028;8.454;2023-02-28T20:40:02;101372.22;;;4.26;43.56
1652;BME280;823;49.028;8.454;2023-02-28T20:45:03;101375.72;;;4.36;43.53
1652;BME280;823;49.028;8.454;2023-02-28T20:50:04;101379.06;;;4.27;43.57
1652;BME280;823;49.028;8.454;2023-02-28T20:55:05;101370.41;;;4.14;44.01
1652;BME280;823;49.028;8.454;2023-02-28T21:00:06;101383.13;;;4.06;44.18
1652;BME280;823;49.028;8.454;2023-02-28T21:05:08;101377.19;;;4.11;43.95
1652;BME280;823;49.028;8.454;2023-02-28T21:10:09;101382.19;;;3.98;44.13
1652;BME280;823;49.028;8.454;2023-02-28T21:15:10;101378.84;;;4.07;44.02
1652;BME280;823;49.028;8.454;2023-02-28T21:20:10;101368.47;;;3.93;44.64
1652;BME280;823;49.028;8.454;2023-02-28T21:25:11;101366.81;;;3.94;44.51
1652;BME280;823;49.028;8.454;2023-02-28T21:30:11;101365.94;;;3.93;44.45
1652;BME280;823;49.028;8.454;2023-02-28T21:35:12;101377.91;;;3.96;44.29
1652;BME280;823;49.028;8.454;2023-02-28T21:40:12;101369.22;;;3.81;44.46
1652;BME280;823;49.028;8.454;2023-02-28T21:45:12;101367.53;;;3.83;44.34
1652;BME280;823;49.028;8.454;2023-02-28T21:50:13;101363.13;;;3.68;44.94
1652;BME280;823;49.028;8.454;2023-02-28T21:55:13;101366.50;;;3.66;44.90
1652;BME280;823;49.028;8.454;2023-02-28T22:00:14;101365.69;;;3.70;44.94
1652;BME280;823;49.028;8.454;2023-02-28T22:05:15;101366.56;;;3.72;44.80
1652;BME280;823;49.028;8.454;2023-02-28T22:10:16;101373.28;;;3.61;45.06
1652;BME280;823;49.028;8.454;2023-02-28T22:15:16;101375.72;;;3.51;45.21
1652;BME280;823;49.028;8.454;2023-02-28T22:20:17;101372.19;;;3.43;45.75
1652;BME280;823;49.028;8.454;2023-02-28T22:25:17;101375.63;;;3.44;45.49
1652;BME280;823;49.028;8.454;2023-02-28T22:30:18;101370.47;;;3.40;45.53
1652;BME280;823;49.028;8.454;2023-02-28T22:35:18;101378.13;;;3.39;45.38
1652;BME280;823;49.028;8.454;2023-02-28T22:40:19;101375.53;;;3.37;45.62
1652;BME280;823;49.028;8.454;2023-02-28T22:45:19;101369.44;;;3.28;45.97
1652;BME280;823;49.028;8.454;2023-02-28T22:50:20;101366.94;;;3.31;46.08
1652;BME280;823;49.028;8.454;2023-02-28T22:55:20;101360.16;;;3.33;45.65
1652;BME280;823;49.028;8.454;2023-02-28T23:00:20;101358.38;;;3.27;45.70
1652;BME280;823;49.028;8.454;2023-02-28T23:05:21;101358.41;;;3.30;45.81
1652;BME280;823;49.028;8.454;2023-02-28T23:10:21;101368.78;;;3.41;45.56
1652;BME280;823;49.028;8.454;2023-02-28T23:15:22;101366.25;;;3.44;45.53
1652;BME280;823;49.028;8.454;2023-02-28T23:20:22;101367.03;;;3.37;45.81
1652;BME280;823;49.028;8.454;2023-02-28T23:25:23;101367.06;;;3.40;45.74
1652;BME280;823;49.028;8.454;2023-02-28T23:30:23;101362.03;;;3.46;45.49
1652;BME280;823;49.028;8.454;2023-02-28T23:35:23;101362.66;;;3.28;45.89
1652;BME280;823;49.028;8.454;2023-02-28T23:40:24;101369.63;;;3.43;45.53
1652;BME280;823;49.028;8.454;2023-02-28T23:45:24;101368.78;;;3.41;45.29
1652;BME280;823;49.028;8.454;2023-02-28T23:50:25;101363.53;;;3.30;45.73
1652;BME280;823;49.028;8.454;2023-02-28T23:55:25;101371.22;;;3.33;45.95
